Time;durP1;ratioP1;P1;durP2;ratioP2;P2;SDS_P1;SDS_P2;PMS_P1;PMS_P2;Temp;Humidity;BMP_temperature;BMP_pressure;BME280_temperature;BME280_humidity;BME280_pressure;Samples;Min_cycle;Max_cycle;Signal;HPM_P1;HPM_P2
2020/12/17 00:00:06;;;;;;;7.23;5.23;;;4.70;99.90;;;;;;4966481;28;20231;-78
2020/12/17 00:02:32;;;;;;;6.00;4.43;;;4.70;99.90;;;;;;4965030;28;20185;-79
2020/12/17 00:04:57;;;;;;;8.67;6.37;;;4.80;99.90;;;;;;4965447;28;20196;-78
2020/12/17 00:07:23;;;;;;;7.37;4.17;;;5.00;99.90;;;;;;4966451;28;20216;-78
2020/12/17 00:09:48;;;;;;;8.13;4.80;;;5.10;99.90;;;;;;4966137;28;20337;-78
2020/12/17 00:12:14;;;;;;;4.90;4.33;;;5.10;99.90;;;;;;4964840;28;20193;-78
2020/12/17 00:14:40;;;;;;;7.93;4.70;;;5.00;99.90;;;;;;4964971;28;20268;-79
2020/12/17 00:17:05;;;;;;;6.27;3.83;;;4.90;99.90;;;;;;4966220;28;20694;-79
2020/12/17 00:19:31;;;;;;;6.67;4.50;;;4.90;99.90;;;;;;4966087;28;21051;-78
2020/12/17 00:21:56;;;;;;;6.53;4.37;;;4.90;99.90;;;;;;4964822;28;20303;-78
2020/12/17 00:24:22;;;;;;;5.30;3.40;;;5.00;99.90;;;;;;4964447;28;20772;-77
2020/12/17 00:26:47;;;;;;;8.00;3.97;;;5.10;99.90;;;;;;4966004;28;20188;-78
2020/12/17 00:29:13;;;;;;;7.03;3.83;;;5.30;99.90;;;;;;4966963;28;20195;-76
2020/12/17 00:31:39;;;;;;;5.73;3.90;;;5.30;99.90;;;;;;4966655;28;20748;-79
2020/12/17 00:34:04;;;;;;;6.40;3.97;;;5.20;99.90;;;;;;4964493;28;20189;-79
2020/12/17 00:36:30;;;;;;;7.83;4.67;;;5.20;99.90;;;;;;4966117;28;20177;-78
2020/12/17 00:38:55;;;;;;;5.07;4.07;;;5.10;99.90;;;;;;4964266;28;20247;-78
2020/12/17 00:41:21;;;;;;;5.20;3.77;;;5.00;99.90;;;;;;4966242;28;20205;-78
2020/12/17 00:43:47;;;;;;;5.17;3.77;;;5.00;99.90;;;;;;4966527;28;20193;-77
2020/12/17 00:46:14;;;;;;;4.27;3.53;;;5.00;99.90;;;;;;4964363;28;20238;-80
2020/12/17 00:48:39;;;;;;;5.17;3.57;;;5.00;99.90;;;;;;4966270;28;20217;-79
2020/12/17 00:51:05;;;;;;;5.77;4.30;;;5.00;99.90;;;;;;4966462;28;20228;-77
2020/12/17 00:53:31;;;;;;;4.70;3.93;;;5.00;99.90;;;;;;4966184;28;20185;-78
2020/12/17 00:55:56;;;;;;;4.07;3.10;;;5.00;99.90;;;;;;4965243;28;20243;-78
2020/12/17 00:58:22;;;;;;;5.37;3.60;;;4.90;99.90;;;;;;4969202;28;20196;-79
2020/12/17 01:00:48;;;;;;;5.20;3.37;;;5.00;99.90;;;;;;4969663;28;20245;-79
2020/12/17 01:03:13;;;;;;;4.47;3.67;;;5.00;99.90;;;;;;4968858;28;20189;-78
2020/12/17 01:05:39;;;;;;;4.70;3.33;;;5.10;99.90;;;;;;4968965;28;20185;-78
2020/12/17 01:08:04;;;;;;;6.03;4.17;;;5.30;99.90;;;;;;4969684;28;20216;-78
2020/12/17 01:10:30;;;;;;;5.03;4.30;;;5.30;99.90;;;;;;4967636;28;20229;-77
2020/12/17 01:12:56;;;;;;;5.53;3.53;;;5.30;99.90;;;;;;4969671;28;20189;-79
2020/12/17 01:15:22;;;;;;;6.57;4.60;;;5.40;99.90;;;;;;4968369;28;20190;-79
2020/12/17 01:17:47;;;;;;;6.43;4.50;;;5.30;99.90;;;;;;4969161;28;20192;-79
2020/12/17 01:20:13;;;;;;;5.50;3.83;;;5.50;99.90;;;;;;4969449;28;20219;-78
2020/12/17 01:22:39;;;;;;;5.23;3.90;;;5.40;99.90;;;;;;4967934;28;20326;-77
2020/12/17 01:25:04;;;;;;;6.63;4.10;;;5.30;99.90;;;;;;4968992;28;20234;-78
2020/12/17 01:27:32;;;;;;;4.17;2.80;;;5.20;99.90;;;;;;4968945;28;20284;-80
2020/12/17 01:29:58;;;;;;;4.80;3.23;;;5.20;99.90;;;;;;4967502;28;20643;-79
2020/12/17 01:32:23;;;;;;;5.07;3.73;;;5.20;99.90;;;;;;4969865;28;20215;-77
2020/12/17 01:34:49;;;;;;;6.63;4.50;;;5.10;99.90;;;;;;4973919;28;20553;-78
2020/12/17 01:37:15;;;;;;;5.33;3.33;;;5.00;99.90;;;;;;4972629;28;20246;-78
2020/12/17 01:39:41;;;;;;;3.73;3.33;;;4.90;99.90;;;;;;4970576;28;20200;-77
2020/12/17 01:42:07;;;;;;;6.53;3.97;;;4.80;99.90;;;;;;4968826;28;20195;-80
2020/12/17 01:44:37;;;;;;;3.27;2.97;;;4.70;99.90;;;;;;4969471;28;20246;-78
2020/12/17 01:47:03;;;;;;;5.00;3.43;;;4.60;99.90;;;;;;4969557;28;20242;-79
2020/12/17 01:49:30;;;;;;;6.53;3.60;;;4.50;99.90;;;;;;4969428;28;20184;-79
2020/12/17 01:51:56;;;;;;;5.23;3.43;;;4.50;99.90;;;;;;4968193;28;20209;-79
2020/12/17 01:54:22;;;;;;;4.63;3.57;;;4.70;99.90;;;;;;4969854;28;20181;-79
2020/12/17 01:56:51;;;;;;;5.23;4.03;;;4.70;99.90;;;;;;4969709;28;20272;-80
2020/12/17 01:59:25;;;;;;;7.50;4.13;;;4.70;99.90;;;;;;4970434;28;20655;-78
2020/12/17 02:01:52;;;;;;;5.73;3.83;;;4.80;99.90;;;;;;4967877;28;20238;-78
2020/12/17 02:04:19;;;;;;;5.33;3.83;;;4.90;99.90;;;;;;4967739;28;20191;-79
2020/12/17 02:06:47;;;;;;;4.90;3.00;;;4.90;99.90;;;;;;4967629;28;20200;-78
2020/12/17 02:09:14;;;;;;;4.40;3.33;;;5.00;99.90;;;;;;4969114;28;20192;-75
2020/12/17 02:11:40;;;;;;;7.97;3.83;;;5.00;99.90;;;;;;4966563;28;20674;-77
2020/12/17 02:14:06;;;;;;;6.27;4.40;;;5.00;99.90;;;;;;4967846;28;20200;-77
2020/12/17 02:16:32;;;;;;;4.43;3.23;;;5.10;99.90;;;;;;4963113;28;20189;-76
2020/12/17 02:18:57;;;;;;;5.53;3.50;;;5.20;99.90;;;;;;4964712;28;20197;-79
2020/12/17 02:21:23;;;;;;;5.90;3.93;;;5.30;99.90;;;;;;4963015;28;20221;-79
2020/12/17 02:23:48;;;;;;;4.63;3.63;;;5.40;99.90;;;;;;4968295;28;20193;-80
2020/12/17 02:26:14;;;;;;;5.33;4.13;;;5.40;99.90;;;;;;4967194;28;20205;-77
2020/12/17 02:28:41;;;;;;;5.40;3.20;;;5.50;99.90;;;;;;4967560;28;20585;-80
2020/12/17 02:31:07;;;;;;;5.73;3.73;;;5.50;99.90;;;;;;4967232;28;20218;-79
2020/12/17 02:33:33;;;;;;;5.17;3.53;;;5.60;99.90;;;;;;4967493;28;20219;-78
2020/12/17 02:35:59;;;;;;;4.97;3.70;;;5.70;99.90;;;;;;4966883;28;20192;-79
2020/12/17 02:38:24;;;;;;;6.00;3.60;;;5.70;99.90;;;;;;4969236;28;20193;-78
2020/12/17 02:40:51;;;;;;;7.13;3.93;;;5.70;99.90;;;;;;4967026;28;20311;-81
2020/12/17 02:43:17;;;;;;;5.37;3.83;;;5.80;99.90;;;;;;4966435;28;20193;-80
2020/12/17 02:45:47;;;;;;;3.90;3.23;;;5.80;99.90;;;;;;4968586;28;20192;-78
2020/12/17 02:48:13;;;;;;;5.60;3.83;;;5.80;99.90;;;;;;4967246;28;20244;-80
2020/12/17 02:50:39;;;;;;;5.80;4.03;;;5.80;99.90;;;;;;4968201;28;20632;-80
2020/12/17 02:53:06;;;;;;;5.03;3.67;;;5.80;99.90;;;;;;4968232;28;20191;-82
2020/12/17 02:55:31;;;;;;;4.33;3.50;;;5.80;99.90;;;;;;4966712;28;20216;-78
2020/12/17 02:57:57;;;;;;;4.23;3.70;;;5.80;99.90;;;;;;4966470;28;20670;-77
2020/12/17 03:00:23;;;;;;;5.90;4.03;;;5.80;99.90;;;;;;4966806;28;20219;-81
2020/12/17 03:02:49;;;;;;;5.03;3.87;;;5.90;99.90;;;;;;4967989;28;20191;-82
2020/12/17 03:05:14;;;;;;;4.93;3.70;;;5.90;99.90;;;;;;4966547;28;20672;-80
2020/12/17 03:07:40;;;;;;;6.20;3.80;;;6.00;99.90;;;;;;4966228;28;20233;-80
2020/12/17 03:10:06;;;;;;;8.87;4.03;;;6.00;99.90;;;;;;4966250;28;20227;-79
2020/12/17 03:12:32;;;;;;;6.33;4.80;;;6.00;99.90;;;;;;4967761;28;20189;-80
2020/12/17 03:14:57;;;;;;;3.47;3.17;;;6.10;99.90;;;;;;4965831;28;20245;-79
2020/12/17 03:17:23;;;;;;;5.03;3.87;;;6.20;99.90;;;;;;4966202;28;20201;-78
2020/12/17 03:19:49;;;;;;;4.77;3.33;;;6.20;99.90;;;;;;4965871;28;20251;-78
2020/12/17 03:22:14;;;;;;;5.13;3.10;;;6.30;99.90;;;;;;4967278;28;20200;-80
2020/12/17 03:24:40;;;;;;;3.70;2.90;;;6.30;99.90;;;;;;4966284;28;20262;-79
2020/12/17 03:27:05;;;;;;;5.57;3.53;;;6.30;99.90;;;;;;4967614;28;20209;-79
2020/12/17 03:29:31;;;;;;;7.53;3.40;;;6.30;99.90;;;;;;4965816;28;20689;-76
2020/12/17 03:31:56;;;;;;;4.67;3.40;;;6.30;99.90;;;;;;4966030;28;20274;-79
2020/12/17 03:34:22;;;;;;;4.00;3.30;;;6.30;99.90;;;;;;4965719;28;20189;-78
2020/12/17 03:36:48;;;;;;;4.53;3.77;;;6.30;99.90;;;;;;4966435;28;20207;-80
2020/12/17 03:39:13;;;;;;;4.87;3.30;;;6.30;99.90;;;;;;4964237;28;20199;-80
2020/12/17 03:41:39;;;;;;;5.50;4.23;;;6.30;99.90;;;;;;4966589;28;20205;-79
2020/12/17 03:44:05;;;;;;;6.37;4.40;;;6.30;99.90;;;;;;4965065;28;20720;-79
2020/12/17 03:46:30;;;;;;;4.87;3.37;;;6.30;99.90;;;;;;4966634;28;20248;-78
2020/12/17 03:48:56;;;;;;;5.30;3.30;;;6.30;99.90;;;;;;4965379;28;20808;-82
2020/12/17 03:51:21;;;;;;;3.47;3.17;;;6.30;99.90;;;;;;4965404;28;20251;-81
2020/12/17 03:53:47;;;;;;;4.67;3.40;;;6.30;99.90;;;;;;4966038;28;20268;-80
2020/12/17 03:56:13;;;;;;;4.27;3.63;;;6.30;99.90;;;;;;4966069;28;20189;-77
2020/12/17 03:58:38;;;;;;;4.67;3.53;;;6.30;99.90;;;;;;4966847;28;20196;-81
2020/12/17 04:01:04;;;;;;;5.40;3.37;;;6.30;99.90;;;;;;4965026;28;20562;-79
2020/12/17 04:03:29;;;;;;;4.97;2.97;;;6.30;99.90;;;;;;4965150;28;20192;-79
2020/12/17 04:05:55;;;;;;;5.13;3.87;;;6.30;99.90;;;;;;4965348;28;20189;-79
2020/12/17 04:08:20;;;;;;;6.07;3.83;;;6.30;99.90;;;;;;4965025;28;20217;-80
2020/12/17 04:10:46;;;;;;;3.80;2.97;;;6.30;99.90;;;;;;4964795;28;20220;-78
2020/12/17 04:13:11;;;;;;;4.63;3.73;;;6.30;99.90;;;;;;4965071;28;20185;-79
2020/12/17 04:15:37;;;;;;;4.67;3.63;;;6.30;99.90;;;;;;4965461;28;20189;-77
2020/12/17 04:18:03;;;;;;;7.47;4.40;;;6.30;99.90;;;;;;4964256;28;20718;-82
2020/12/17 04:20:28;;;;;;;3.50;2.90;;;6.30;99.90;;;;;;4963375;28;20228;-80
2020/12/17 04:22:54;;;;;;;6.03;4.00;;;6.30;99.90;;;;;;4966628;28;20191;-79
2020/12/17 04:25:19;;;;;;;3.90;3.03;;;6.30;99.90;;;;;;4964382;28;20225;-79
2020/12/17 04:27:45;;;;;;;5.07;2.87;;;6.20;99.90;;;;;;4962281;28;20221;-76
2020/12/17 04:30:10;;;;;;;4.03;2.63;;;6.20;99.90;;;;;;4963695;28;20212;-78
2020/12/17 04:32:36;;;;;;;5.57;3.50;;;6.20;99.90;;;;;;4965643;28;20247;-79
2020/12/17 04:35:02;;;;;;;4.17;2.83;;;6.20;99.90;;;;;;4967427;28;20189;-78
2020/12/17 04:37:28;;;;;;;5.30;3.60;;;6.10;99.90;;;;;;4967629;28;20266;-79
2020/12/17 04:39:53;;;;;;;5.00;3.67;;;6.10;99.90;;;;;;4967601;28;20192;-79
2020/12/17 04:42:20;;;;;;;5.07;3.70;;;6.00;99.90;;;;;;4969316;28;20189;-81
2020/12/17 04:44:46;;;;;;;4.10;2.50;;;5.90;99.90;;;;;;4969138;28;20185;-80
2020/12/17 04:47:18;;;;;;;3.93;2.63;;;5.90;99.90;;;;;;4967386;28;20197;-77
2020/12/17 04:49:51;;;;;;;3.30;2.70;;;5.90;99.90;;;;;;4967060;28;20243;-79
2020/12/17 04:52:18;;;;;;;6.47;3.83;;;5.80;99.90;;;;;;4967410;28;20212;-77
2020/12/17 04:54:44;;;;;;;3.87;2.70;;;5.80;99.90;;;;;;4969339;28;20609;-79
2020/12/17 04:57:12;;;;;;;5.13;3.60;;;5.80;99.90;;;;;;4967256;28;20998;-80
2020/12/17 04:59:47;;;;;;;4.47;3.30;;;5.80;99.90;;;;;;4969263;28;20216;-77
2020/12/17 05:02:14;;;;;;;3.33;2.73;;;5.70;99.90;;;;;;4967147;28;20203;-79
2020/12/17 05:04:43;;;;;;;5.93;3.77;;;5.80;99.90;;;;;;4969036;28;20185;-78
2020/12/17 05:07:12;;;;;;;4.13;3.00;;;5.90;99.90;;;;;;4966522;28;20209;-78
2020/12/17 05:09:39;;;;;;;6.37;3.50;;;6.00;99.90;;;;;;4968481;28;20201;-77
2020/12/17 05:12:05;;;;;;;4.10;2.93;;;6.00;99.90;;;;;;4966828;28;20619;-82
2020/12/17 05:14:31;;;;;;;4.33;3.33;;;6.00;99.90;;;;;;4968325;28;20212;-79
2020/12/17 05:16:57;;;;;;;3.80;2.63;;;6.00;99.90;;;;;;4966933;28;20724;-81
2020/12/17 05:19:24;;;;;;;3.83;2.97;;;6.10;99.90;;;;;;4980973;28;20234;-78
2020/12/17 05:21:51;;;;;;;4.97;2.60;;;6.10;99.90;;;;;;4965183;28;20296;-77
2020/12/17 05:24:22;;;;;;;5.03;3.33;;;6.10;99.90;;;;;;4964494;28;20285;-78
2020/12/17 05:26:52;;;;;;;3.67;2.67;;;6.10;99.90;;;;;;4964202;28;20559;-79
2020/12/17 05:29:18;;;;;;;4.10;2.57;;;6.10;99.90;;;;;;4963867;28;20250;-79
2020/12/17 05:31:45;;;;;;;3.63;2.50;;;6.00;99.90;;;;;;4963476;28;20307;-77
2020/12/17 05:34:11;;;;;;;4.27;3.27;;;6.00;99.90;;;;;;4965513;28;20204;-77
2020/12/17 05:36:39;;;;;;;4.07;3.17;;;5.90;99.90;;;;;;4963999;28;20615;-78
2020/12/17 05:39:19;;;;;;;5.03;2.70;;;5.90;99.90;;;;;;4964006;28;20201;-77
2020/12/17 05:41:47;;;;;;;3.97;3.07;;;5.90;99.90;;;;;;4963151;28;20213;-78
2020/12/17 05:44:16;;;;;;;2.93;2.27;;;5.90;99.90;;;;;;4962905;28;20663;-80
2020/12/17 05:46:43;;;;;;;4.83;3.17;;;5.80;99.90;;;;;;4963515;28;20197;-79
2020/12/17 05:49:09;;;;;;;4.57;3.03;;;5.80;99.90;;;;;;4965092;28;20227;-77
2020/12/17 05:51:35;;;;;;;3.73;3.43;;;5.70;99.90;;;;;;4963067;28;20216;-76
2020/12/17 05:54:01;;;;;;;4.23;2.83;;;5.70;99.90;;;;;;4963777;28;20667;-77
2020/12/17 05:56:28;;;;;;;3.93;3.00;;;5.70;99.90;;;;;;4963507;28;20280;-78
2020/12/17 05:59:01;;;;;;;3.53;2.80;;;5.70;99.90;;;;;;4964797;28;20185;-80
2020/12/17 06:01:27;;;;;;;5.10;2.77;;;5.60;99.90;;;;;;4965058;28;20215;-80
2020/12/17 06:03:53;;;;;;;3.67;3.00;;;5.70;99.90;;;;;;4967962;28;20185;-79
2020/12/17 06:06:19;;;;;;;2.57;2.13;;;5.80;99.90;;;;;;4965621;28;20195;-81
2020/12/17 06:08:50;;;;;;;3.30;2.60;;;5.80;99.90;;;;;;4965842;28;20200;-78
2020/12/17 06:11:17;;;;;;;3.83;2.80;;;5.90;99.90;;;;;;4966148;28;20701;-79
2020/12/17 06:13:43;;;;;;;3.97;2.97;;;6.00;99.90;;;;;;4965269;28;20217;-76
2020/12/17 06:16:11;;;;;;;4.73;2.37;;;5.90;99.90;;;;;;4965830;28;20557;-78
2020/12/17 06:18:44;;;;;;;2.93;2.13;;;5.90;99.90;;;;;;4967313;28;20189;-80
2020/12/17 06:21:11;;;;;;;3.20;2.80;;;5.80;99.90;;;;;;4981738;28;20217;-81
2020/12/17 06:23:38;;;;;;;3.57;3.10;;;5.80;99.90;;;;;;4966576;28;20315;-78
2020/12/17 06:26:09;;;;;;;3.50;2.77;;;5.80;99.90;;;;;;4966250;28;20199;-77
2020/12/17 06:28:47;;;;;;;3.37;2.57;;;5.80;99.90;;;;;;4966484;28;20213;-78
2020/12/17 06:31:25;;;;;;;2.90;2.47;;;5.80;99.90;;;;;;4966590;28;20212;-77
2020/12/17 06:33:56;;;;;;;4.10;3.10;;;5.80;99.90;;;;;;4967044;28;20238;-78
2020/12/17 06:36:30;;;;;;;4.37;3.03;;;5.80;99.90;;;;;;4966901;28;20529;-77
2020/12/17 06:38:55;;;;;;;4.20;2.83;;;5.70;99.90;;;;;;4964746;28;20593;-80
2020/12/17 06:41:23;;;;;;;4.97;3.10;;;5.70;99.90;;;;;;4965215;28;20289;-81
2020/12/17 06:43:50;;;;;;;3.30;2.63;;;5.60;99.90;;;;;;4966468;28;20181;-81
2020/12/17 06:46:36;;;;;;;3.37;2.33;;;5.60;99.90;;;;;;4965021;28;20212;-78
2020/12/17 06:49:04;;;;;;;3.37;2.10;;;5.60;99.90;;;;;;4962103;28;20213;-76
2020/12/17 06:51:40;;;;;;;3.17;2.47;;;5.60;99.90;;;;;;4961716;28;20215;-77
2020/12/17 06:54:08;;;;;;;4.27;2.77;;;5.60;99.90;;;;;;4965508;28;20228;-77
2020/12/17 06:56:37;;;;;;;3.30;2.17;;;5.60;99.90;;;;;;4964947;28;20201;-76
2020/12/17 06:59:19;;;;;;;4.50;3.17;;;5.70;99.90;;;;;;4966534;28;21036;-81
2020/12/17 07:01:46;;;;;;;3.10;2.70;;;5.70;99.90;;;;;;4965133;28;20211;-78
2020/12/17 07:04:12;;;;;;;4.03;2.97;;;5.70;99.90;;;;;;4964719;28;20232;-76
2020/12/17 07:06:38;;;;;;;3.27;2.73;;;5.70;99.90;;;;;;4966154;28;20204;-78
2020/12/17 07:09:04;;;;;;;5.40;2.83;;;5.70;99.90;;;;;;4965957;28;20291;-80
2020/12/17 07:11:43;;;;;;;2.90;2.47;;;5.70;99.90;;;;;;4965675;28;20264;-81
2020/12/17 07:14:34;;;;;;;3.67;2.80;;;5.70;99.90;;;;;;4964668;28;20189;-76
2020/12/17 07:17:03;;;;;;;3.97;2.40;;;5.70;99.90;;;;;;4964078;28;20191;-81
2020/12/17 07:19:44;;;;;;;3.40;2.67;;;5.80;99.90;;;;;;4966209;28;20227;-77
2020/12/17 07:22:14;;;;;;;3.17;2.67;;;6.00;99.90;;;;;;4965235;28;20192;-76
2020/12/17 07:24:49;;;;;;;3.27;2.40;;;6.10;99.90;;;;;;4964014;28;20193;-79
2020/12/17 07:27:18;;;;;;;3.77;2.70;;;6.20;99.90;;;;;;4965434;28;20207;-78
2020/12/17 07:29:50;;;;;;;3.20;2.40;;;6.20;99.90;;;;;;4963201;28;20185;-76
2020/12/17 07:32:45;;;;;;;5.07;2.33;;;6.10;99.90;;;;;;4965034;28;20188;-79
2020/12/17 07:35:11;;;;;;;3.03;2.50;;;6.10;99.90;;;;;;4964584;28;20203;-73
2020/12/17 07:37:38;;;;;;;3.60;2.00;;;6.20;99.90;;;;;;4960486;28;20193;-74
2020/12/17 07:40:20;;;;;;;3.63;2.63;;;6.20;99.90;;;;;;4960837;28;20205;-74
2020/12/17 07:43:14;;;;;;;24.93;17.67;;;6.30;99.90;;;;;;4961769;28;20192;-75
2020/12/17 07:45:56;;;;;;;54.93;33.60;;;6.30;99.90;;;;;;4960511;28;20188;-74
2020/12/17 07:48:44;;;;;;;15.77;10.43;;;6.30;99.90;;;;;;4960586;28;20278;-77
2020/12/17 07:51:13;;;;;;;5.63;4.37;;;6.30;99.90;;;;;;4961364;28;20201;-75
2020/12/17 07:53:40;;;;;;;3.57;2.80;;;6.30;99.90;;;;;;4962102;28;20184;-76
2020/12/17 07:56:09;;;;;;;3.27;2.47;;;6.30;99.90;;;;;;4965444;28;20181;-79
2020/12/17 07:58:35;;;;;;;3.40;2.40;;;6.30;99.90;;;;;;4964791;28;20192;-77
2020/12/17 08:01:04;;;;;;;3.13;2.47;;;6.40;99.90;;;;;;4962805;28;20825;-79
2020/12/17 08:03:49;;;;;;;3.50;2.77;;;6.40;99.90;;;;;;4962897;28;20235;-79
2020/12/17 08:06:17;;;;;;;3.77;3.37;;;6.50;99.90;;;;;;4963970;28;20196;-79
2020/12/17 08:08:43;;;;;;;3.73;3.00;;;6.50;99.90;;;;;;4968991;28;20300;-79
2020/12/17 08:11:10;;;;;;;2.67;2.37;;;6.50;99.90;;;;;;4968105;28;20280;-79
2020/12/17 08:13:36;;;;;;;2.50;1.83;;;6.40;99.90;;;;;;4967977;28;20887;-78
2020/12/17 08:16:04;;;;;;;3.23;2.33;;;6.40;99.90;;;;;;4967765;28;20238;-78
2020/12/17 08:18:32;;;;;;;4.07;3.00;;;6.40;99.90;;;;;;4967941;28;20189;-79
2020/12/17 08:21:04;;;;;;;2.50;2.30;;;6.40;99.90;;;;;;4967514;28;20208;-78
2020/12/17 08:23:32;;;;;;;2.37;2.03;;;6.40;99.90;;;;;;4966341;28;20189;-80
2020/12/17 08:26:02;;;;;;;3.17;2.50;;;6.40;99.90;;;;;;4967335;28;20214;-77
2020/12/17 08:28:33;;;;;;;3.10;2.40;;;6.40;99.90;;;;;;4970991;28;20221;-78
2020/12/17 08:31:22;;;;;;;2.93;1.97;;;6.50;99.90;;;;;;4970020;28;20201;-79
2020/12/17 08:33:58;;;;;;;2.47;1.97;;;6.50;99.90;;;;;;4971850;28;20192;-78
2020/12/17 08:36:26;;;;;;;4.13;2.30;;;6.60;99.90;;;;;;4969922;28;20242;-78
2020/12/17 08:39:13;;;;;;;3.20;2.60;;;6.70;99.90;;;;;;4967474;28;21102;-79
2020/12/17 08:41:52;;;;;;;2.73;2.30;;;6.70;99.90;;;;;;4967020;28;20204;-79
2020/12/17 08:44:23;;;;;;;4.10;2.47;;;6.80;99.90;;;;;;4967387;28;20184;-80
2020/12/17 08:46:57;;;;;;;3.33;2.03;;;7.00;99.90;;;;;;4965278;28;20257;-80
2020/12/17 08:49:25;;;;;;;3.07;2.40;;;7.30;99.90;;;;;;4966343;28;20213;-78
2020/12/17 08:51:50;;;;;;;3.30;2.27;;;7.50;99.90;;;;;;4966557;28;20209;-78
2020/12/17 08:54:32;;;;;;;2.10;1.80;;;7.70;99.90;;;;;;4969231;28;20273;-78
2020/12/17 08:57:03;;;;;;;2.73;1.93;;;8.00;99.90;;;;;;4967468;28;20181;-79
2020/12/17 08:59:29;;;;;;;2.60;1.70;;;8.20;99.90;;;;;;4968283;28;20205;-78
2020/12/17 09:01:59;;;;;;;2.83;1.60;;;8.30;99.90;;;;;;4965620;28;20248;-78
2020/12/17 09:04:26;;;;;;;2.40;2.20;;;8.40;99.90;;;;;;4963744;28;20181;-77
2020/12/17 09:06:53;;;;;;;2.57;2.07;;;8.40;99.90;;;;;;4965950;28;20189;-77
2020/12/17 09:09:28;;;;;;;3.60;2.10;;;8.60;99.90;;;;;;4963943;28;20225;-73
2020/12/17 09:11:55;;;;;;;2.20;2.00;;;8.60;99.90;;;;;;4979265;28;20793;-73
2020/12/17 09:14:28;;;;;;;2.43;2.23;;;8.50;99.90;;;;;;4964851;28;20254;-73
2020/12/17 09:16:54;;;;;;;3.00;1.53;;;8.60;99.90;;;;;;4963318;28;21026;-73
2020/12/17 09:19:19;;;;;;;2.73;2.23;;;8.80;99.90;;;;;;4962259;28;20212;-73
2020/12/17 09:21:54;;;;;;;3.43;2.00;;;8.80;99.90;;;;;;4964100;28;20217;-73
2020/12/17 09:24:35;;;;;;;3.03;2.03;;;8.80;99.90;;;;;;4962473;28;20188;-73
2020/12/17 09:27:34;;;;;;;2.73;1.90;;;8.70;99.90;;;;;;4963456;28;20250;-74
2020/12/17 09:30:14;;;;;;;2.73;2.10;;;8.70;99.90;;;;;;5005576;28;20286;-73
2020/12/17 09:32:55;;;;;;;3.10;2.20;;;8.70;99.90;;;;;;4962787;28;20189;-74
2020/12/17 09:35:29;;;;;;;1.90;1.50;;;8.70;99.90;;;;;;4963412;28;20293;-73
2020/12/17 09:37:59;;;;;;;2.23;1.77;;;8.60;99.90;;;;;;4962322;28;21014;-73
2020/12/17 09:40:25;;;;;;;2.37;2.10;;;8.70;99.90;;;;;;4963644;28;20209;-73
2020/12/17 09:43:14;;;;;;;1.97;1.73;;;8.70;99.90;;;;;;4963056;28;20185;-73
2020/12/17 09:45:44;;;;;;;5.63;3.20;;;8.70;99.90;;;;;;4963275;28;20195;-73
2020/12/17 09:48:15;;;;;;;4.67;2.43;;;8.90;99.90;;;;;;4963799;28;20299;-73
2020/12/17 09:51:06;;;;;;;4.43;3.63;;;8.90;99.90;;;;;;4964094;28;20211;-73
2020/12/17 09:53:34;;;;;;;4.23;2.90;;;9.00;99.90;;;;;;4964587;28;20195;-73
2020/12/17 09:56:00;;;;;;;2.37;1.83;;;9.00;99.90;;;;;;4963919;28;20272;-73
2020/12/17 09:58:26;;;;;;;5.87;2.00;;;9.00;99.90;;;;;;4964814;28;20705;-73
2020/12/17 10:00:52;;;;;;;2.37;2.00;;;9.00;99.90;;;;;;4965024;28;20201;-77
2020/12/17 10:03:18;;;;;;;2.30;2.10;;;9.00;99.90;;;;;;4967038;28;20184;-77
2020/12/17 10:05:44;;;;;;;2.73;2.30;;;9.00;99.90;;;;;;4967140;28;20296;-78
2020/12/17 10:08:09;;;;;;;3.57;1.97;;;8.90;99.90;;;;;;4965385;28;20245;-77
2020/12/17 10:10:35;;;;;;;2.43;2.10;;;9.00;99.90;;;;;;4967076;28;20208;-78
2020/12/17 10:13:02;;;;;;;2.20;1.73;;;9.00;99.90;;;;;;4965834;28;20189;-77
2020/12/17 10:15:29;;;;;;;2.53;1.67;;;9.00;99.90;;;;;;4965772;28;20196;-78
2020/12/17 10:17:55;;;;;;;3.37;2.30;;;8.90;99.90;;;;;;4966894;28;20185;-74
2020/12/17 10:20:22;;;;;;;3.43;2.30;;;8.90;99.90;;;;;;4970274;28;20209;-78
2020/12/17 10:22:48;;;;;;;2.43;1.63;;;9.00;99.90;;;;;;4965724;28;20184;-79
2020/12/17 10:25:14;;;;;;;3.53;2.23;;;9.10;99.90;;;;;;4966793;28;20193;-77
2020/12/17 10:27:40;;;;;;;2.57;1.93;;;9.10;99.90;;;;;;4968161;28;20281;-79
2020/12/17 10:30:07;;;;;;;2.93;2.20;;;9.10;99.90;;;;;;4965522;28;20307;-77
2020/12/17 10:32:33;;;;;;;5.37;2.93;;;9.20;99.90;;;;;;4967374;28;20184;-77
2020/12/17 10:35:02;;;;;;;2.40;1.83;;;9.20;99.90;;;;;;4966051;28;20275;-78
2020/12/17 10:37:28;;;;;;;4.30;3.40;;;9.10;99.90;;;;;;4966629;28;20190;-78
2020/12/17 10:39:54;;;;;;;2.53;1.93;;;9.00;99.90;;;;;;4965079;28;20374;-79
2020/12/17 10:42:21;;;;;;;2.87;2.10;;;9.10;99.90;;;;;;4964341;28;20204;-79
2020/12/17 10:44:47;;;;;;;4.57;2.40;;;9.10;99.90;;;;;;4964733;28;20208;-81
2020/12/17 10:47:14;;;;;;;3.87;2.20;;;9.10;99.90;;;;;;4965188;28;20191;-79
2020/12/17 10:49:39;;;;;;;3.27;2.50;;;9.00;99.90;;;;;;4966496;28;20185;-79
2020/12/17 10:52:05;;;;;;;2.93;2.40;;;9.10;99.90;;;;;;4966065;28;20224;-79
2020/12/17 10:54:31;;;;;;;2.77;2.27;;;9.20;99.90;;;;;;4965249;28;20189;-79
2020/12/17 10:56:56;;;;;;;2.43;1.93;;;9.20;99.90;;;;;;4966175;28;20189;-79
2020/12/17 10:59:22;;;;;;;2.70;2.40;;;9.20;99.90;;;;;;4967343;28;20670;-78
2020/12/17 11:01:48;;;;;;;5.33;1.77;;;9.20;99.90;;;;;;4966686;28;20211;-80
2020/12/17 11:04:13;;;;;;;3.20;2.27;;;9.30;99.90;;;;;;4969815;28;20531;-78
2020/12/17 11:06:39;;;;;;;3.03;2.20;;;9.20;99.90;;;;;;4964121;28;20220;-83
2020/12/17 11:09:04;;;;;;;3.60;2.20;;;9.40;99.90;;;;;;4965360;28;20744;-79
2020/12/17 11:11:31;;;;;;;2.70;1.97;;;9.40;99.90;;;;;;4965169;28;20246;-79
2020/12/17 11:13:57;;;;;;;2.37;1.90;;;9.50;99.90;;;;;;4966352;28;20180;-79
2020/12/17 11:16:22;;;;;;;4.77;2.57;;;9.40;99.90;;;;;;4964361;28;20254;-79
2020/12/17 11:18:48;;;;;;;2.50;2.30;;;9.40;99.90;;;;;;4980703;28;20239;-80
2020/12/17 11:21:21;;;;;;;2.30;1.67;;;9.40;99.90;;;;;;4964389;28;20244;-79
2020/12/17 11:23:46;;;;;;;3.03;2.17;;;9.40;99.90;;;;;;4966114;28;20189;-78
2020/12/17 11:26:12;;;;;;;2.77;2.10;;;9.40;99.90;;;;;;4964626;28;20196;-75
2020/12/17 11:28:38;;;;;;;3.90;2.40;;;9.40;99.90;;;;;;4963342;28;20208;-79
2020/12/17 11:31:05;;;;;;;2.37;1.80;;;9.30;99.90;;;;;;4966381;28;20213;-78
2020/12/17 11:33:31;;;;;;;2.07;1.73;;;9.20;99.90;;;;;;4965788;28;20225;-79
2020/12/17 11:35:56;;;;;;;2.77;2.17;;;9.20;99.90;;;;;;4965702;28;20220;-79
2020/12/17 11:38:22;;;;;;;2.10;1.90;;;9.10;99.90;;;;;;4966538;28;20208;-79
2020/12/17 11:40:48;;;;;;;2.80;1.83;;;9.10;99.90;;;;;;4965161;28;20217;-77
2020/12/17 11:43:13;;;;;;;3.60;2.13;;;9.10;99.90;;;;;;4966401;28;20658;-79
2020/12/17 11:45:39;;;;;;;2.70;1.93;;;9.20;99.90;;;;;;4965452;28;20225;-80
2020/12/17 11:48:05;;;;;;;2.90;1.93;;;9.20;99.90;;;;;;4966631;28;20204;-78
2020/12/17 11:50:31;;;;;;;3.20;2.43;;;9.20;99.90;;;;;;4964412;28;20219;-75
2020/12/17 11:52:57;;;;;;;2.30;1.90;;;9.20;99.90;;;;;;4964155;28;20173;-77
2020/12/17 11:55:22;;;;;;;3.80;1.93;;;9.20;99.90;;;;;;4964111;28;20181;-80
2020/12/17 11:57:48;;;;;;;2.27;2.07;;;9.20;99.90;;;;;;4963476;28;20196;-77
2020/12/17 12:00:15;;;;;;;2.50;1.87;;;9.20;99.90;;;;;;4964472;28;20265;-79
2020/12/17 12:02:43;;;;;;;2.67;2.17;;;9.10;99.90;;;;;;4961116;28;20238;-73
2020/12/17 12:05:09;;;;;;;2.30;2.10;;;9.10;99.90;;;;;;4961387;28;20232;-75
2020/12/17 12:07:35;;;;;;;3.67;2.60;;;9.10;99.90;;;;;;4962130;28;20263;-79
2020/12/17 12:10:05;;;;;;;3.50;2.43;;;9.00;99.90;;;;;;4961417;28;20223;-75
2020/12/17 12:12:31;;;;;;;3.67;2.90;;;9.00;99.90;;;;;;4960697;28;20655;-75
2020/12/17 12:14:57;;;;;;;3.13;2.03;;;8.90;99.90;;;;;;4959991;28;20557;-74
2020/12/17 12:17:22;;;;;;;2.57;2.37;;;8.90;99.90;;;;;;4959989;28;20185;-74
2020/12/17 12:19:48;;;;;;;3.50;2.00;;;8.90;99.90;;;;;;4959905;28;20199;-74
2020/12/17 12:22:13;;;;;;;2.00;1.77;;;9.00;99.90;;;;;;4958982;28;20196;-74
2020/12/17 12:24:39;;;;;;;3.07;2.50;;;9.00;99.90;;;;;;4960491;28;20189;-75
2020/12/17 12:27:05;;;;;;;3.27;2.57;;;9.00;99.90;;;;;;4960537;28;20629;-75
2020/12/17 12:29:31;;;;;;;3.60;2.10;;;9.00;99.90;;;;;;4959699;28;20316;-75
2020/12/17 12:31:57;;;;;;;2.50;2.17;;;8.90;99.90;;;;;;4960161;28;20288;-74
2020/12/17 12:34:25;;;;;;;4.73;2.97;;;8.90;99.90;;;;;;4956326;28;20227;-74
2020/12/17 12:36:53;;;;;;;5.63;2.90;;;8.90;99.90;;;;;;4956041;28;20291;-74
2020/12/17 12:39:20;;;;;;;3.77;2.90;;;8.90;99.90;;;;;;4956028;28;20199;-74
2020/12/17 12:41:47;;;;;;;2.90;2.60;;;8.80;99.90;;;;;;4957994;28;20253;-74
2020/12/17 12:44:13;;;;;;;4.27;2.53;;;8.80;99.90;;;;;;4958293;28;20208;-75
2020/12/17 12:46:39;;;;;;;3.47;2.23;;;8.70;99.90;;;;;;4956747;28;20224;-74
2020/12/17 12:49:05;;;;;;;4.33;2.77;;;8.70;99.90;;;;;;4958206;28;20744;-74
2020/12/17 12:51:31;;;;;;;4.13;2.87;;;8.80;99.90;;;;;;4957597;28;20216;-74
2020/12/17 12:53:56;;;;;;;4.53;2.80;;;8.80;99.90;;;;;;4957625;28;20613;-74
2020/12/17 12:56:23;;;;;;;3.23;2.20;;;8.70;99.90;;;;;;4961319;28;20192;-74
2020/12/17 12:58:49;;;;;;;4.67;2.60;;;8.80;99.90;;;;;;4961388;28;20185;-74
2020/12/17 13:01:15;;;;;;;3.60;2.20;;;8.70;99.90;;;;;;4963380;28;20270;-78